Time;durP1;ratioP1;P1;durP2;ratioP2;P2;SDS_P1;SDS_P2;PMS_P1;PMS_P2;Temp;Humidity;BMP_temperature;BMP_pressure;BME280_temperature;BME280_humidity;BME280_pressure;Samples;Min_cycle;Max_cycle;Signal;HPM_P1;HPM_P2
2022/10/06 00:00:21;;;;;;;0.30;0.30;;;;;;;;;;5096661;28;20030;-84
2022/10/06 00:02:46;;;;;;;0.15;0.10;;;;;;;;;;5094142;28;20058;-83
2022/10/06 00:05:12;;;;;;;0.85;0.73;;;;;;;;;;5094857;28;20331;-84
2022/10/06 00:07:38;;;;;;;0.30;0.30;;;;;;;;;;5115002;28;20016;-83
2022/10/06 00:10:05;;;;;;;0.50;0.43;;;;;;;;;;5114474;28;20024;-84
2022/10/06 00:12:41;;;;;;;0.25;0.25;;;;;;;;;;5114329;28;20687;-84
2022/10/06 00:15:07;;;;;;;0.17;0.17;;;;;;;;;;5091903;28;20062;-84
2022/10/06 00:17:33;;;;;;;0.10;0.10;;;;;;;;;;5114104;28;20584;-83
2022/10/06 00:19:58;;;;;;;0.13;0.13;;;;;;;;;;5114162;28;20067;-84
2022/10/06 00:22:23;;;;;;;0.22;0.20;;;;;;;;;;5095950;28;20386;-83
2022/10/06 00:24:49;;;;;;;0.75;0.47;;;;;;;;;;5093386;28;20035;-85
2022/10/06 00:27:14;;;;;;;0.30;0.30;;;;;;;;;;5111753;28;20033;-86
2022/10/06 00:29:41;;;;;;;0.40;0.32;;;;;;;;;;5114014;28;20073;-83
2022/10/06 00:32:08;;;;;;;0.20;0.20;;;;;;;;;;5095834;28;20019;-85
2022/10/06 00:34:35;;;;;;;0.10;0.10;;;;;;;;;;5111206;28;20485;-83
2022/10/06 00:37:01;;;;;;;0.25;0.25;;;;;;;;;;5094667;28;20091;-84
2022/10/06 00:39:26;;;;;;;0.25;0.25;;;;;;;;;;5093690;28;20099;-84
2022/10/06 00:41:51;;;;;;;0.38;0.25;;;;;;;;;;5108643;28;20032;-84
2022/10/06 00:44:17;;;;;;;0.10;0.10;;;;;;;;;;5113345;28;20030;-84
2022/10/06 00:46:49;;;;;;;0.10;0.10;;;;;;;;;;5113867;28;20054;-82
2022/10/06 00:49:22;;;;;;;0.10;0.10;;;;;;;;;;5094204;28;20027;-86
2022/10/06 00:52:06;;;;;;;0.00;0.00;;;;;;;;;;5094903;28;20024;-84
2022/10/06 00:54:33;;;;;;;0.20;0.20;;;;;;;;;;5113043;28;20034;-84
2022/10/06 00:56:58;;;;;;;0.30;0.30;;;;;;;;;;5113487;28;20027;-86
2022/10/06 00:59:24;;;;;;;0.25;0.25;;;;;;;;;;5095088;28;20076;-85
2022/10/06 01:02:00;;;;;;;0.85;0.70;;;;;;;;;;5113591;28;20030;-85
2022/10/06 01:04:29;;;;;;;0.10;0.10;;;;;;;;;;5092098;28;20046;-85
2022/10/06 01:06:57;;;;;;;0.30;0.30;;;;;;;;;;5093834;28;20037;-85
2022/10/06 01:09:24;;;;;;;0.20;0.20;;;;;;;;;;5113449;28;20027;-84
2022/10/06 01:11:54;;;;;;;0.10;0.10;;;;;;;;;;5113659;28;20020;-87
2022/10/06 01:14:21;;;;;;;0.38;0.38;;;;;;;;;;5093339;28;20096;-87
2022/10/06 01:16:54;;;;;;;0.32;0.30;;;;;;;;;;5113146;28;20028;-86
2022/10/06 01:19:30;;;;;;;0.40;0.40;;;;;;;;;;5111911;28;20463;-85
2022/10/06 01:21:59;;;;;;;0.15;0.15;;;;;;;;;;5112013;28;20469;-85
2022/10/06 01:24:27;;;;;;;0.95;0.30;;;;;;;;;;5088052;28;20467;-83
2022/10/06 01:26:53;;;;;;;0.30;0.30;;;;;;;;;;5093984;28;20035;-83
2022/10/06 01:29:20;;;;;;;0.98;0.13;;;;;;;;;;5094494;28;20039;-84
2022/10/06 01:31:45;;;;;;;0.10;0.10;;;;;;;;;;5111819;28;20471;-84
2022/10/06 01:34:11;;;;;;;0.20;0.20;;;;;;;;;;5112628;28;20034;-84
2022/10/06 01:36:39;;;;;;;0.20;0.20;;;;;;;;;;5092109;28;20020;-85
2022/10/06 01:39:04;;;;;;;0.30;0.30;;;;;;;;;;5107396;28;20030;-85
2022/10/06 01:41:32;;;;;;;0.40;0.32;;;;;;;;;;5104669;28;20380;-85
2022/10/06 01:43:57;;;;;;;0.32;0.32;;;;;;;;;;5112981;28;20024;-85
2022/10/06 01:46:22;;;;;;;0.28;0.28;;;;;;;;;;5095039;28;20115;-85
2022/10/06 01:48:48;;;;;;;0.40;0.20;;;;;;;;;;5092261;28;20023;-87
2022/10/06 01:51:17;;;;;;;0.17;0.17;;;;;;;;;;5112597;28;20016;-85
2022/10/06 01:53:42;;;;;;;0.20;0.20;;;;;;;;;;5094480;28;20031;-85
2022/10/06 01:56:08;;;;;;;0.47;0.47;;;;;;;;;;5112751;28;20023;-86
2022/10/06 01:58:33;;;;;;;8.43;0.47;;;;;;;;;;5112542;28;20020;-85
2022/10/06 02:01:06;;;;;;;0.15;0.15;;;;;;;;;;5111549;28;20046;-85
2022/10/06 02:03:38;;;;;;;0.20;0.20;;;;;;;;;;5092560;28;20030;-84
2022/10/06 02:06:04;;;;;;;0.38;0.35;;;;;;;;;;5094176;28;20024;-84
2022/10/06 02:08:30;;;;;;;0.63;0.30;;;;;;;;;;5112746;28;20041;-84
2022/10/06 02:10:56;;;;;;;0.30;0.30;;;;;;;;;;5111552;28;20106;-84
2022/10/06 02:13:26;;;;;;;0.10;0.10;;;;;;;;;;5112253;28;20526;-86
2022/10/06 02:15:56;;;;;;;0.10;0.10;;;;;;;;;;5094125;28;20393;-85
2022/10/06 02:18:22;;;;;;;0.10;0.10;;;;;;;;;;5094011;28;20027;-86
2022/10/06 02:20:48;;;;;;;0.32;0.32;;;;;;;;;;5093952;28;20036;-84
2022/10/06 02:23:13;;;;;;;0.43;0.43;;;;;;;;;;5094599;28;20031;-85
2022/10/06 02:25:39;;;;;;;0.10;0.10;;;;;;;;;;5112188;28;20023;-85
2022/10/06 02:28:04;;;;;;;0.25;0.20;;;;;;;;;;5112592;28;20109;-85
2022/10/06 02:30:29;;;;;;;0.28;0.28;;;;;;;;;;5093955;28;20051;-84
2022/10/06 02:32:55;;;;;;;0.10;0.10;;;;;;;;;;5090922;28;20046;-82
2022/10/06 02:35:20;;;;;;;0.15;0.15;;;;;;;;;;5094081;28;20023;-86
2022/10/06 02:37:47;;;;;;;0.20;0.20;;;;;;;;;;5094196;28;20020;-83
2022/10/06 02:40:15;;;;;;;0.28;0.28;;;;;;;;;;5110071;28;20482;-84
2022/10/06 02:42:40;;;;;;;0.20;0.20;;;;;;;;;;5089979;28;20487;-83
2022/10/06 02:45:06;;;;;;;0.22;0.22;;;;;;;;;;5093300;28;20024;-84
2022/10/06 02:47:33;;;;;;;0.22;0.22;;;;;;;;;;5093536;28;20081;-83
2022/10/06 02:50:00;;;;;;;0.10;0.10;;;;;;;;;;5092517;28;20375;-85
2022/10/06 02:52:34;;;;;;;0.20;0.20;;;;;;;;;;5093331;28;20055;-86
2022/10/06 02:55:03;;;;;;;0.20;0.20;;;;;;;;;;5114365;28;20031;-85
2022/10/06 02:57:29;;;;;;;0.20;0.20;;;;;;;;;;5097088;28;20027;-85
2022/10/06 02:59:55;;;;;;;0.05;0.05;;;;;;;;;;5094026;28;20503;-85
2022/10/06 03:02:21;;;;;;;0.38;0.38;;;;;;;;;;5093642;28;20027;-86
2022/10/06 03:04:46;;;;;;;0.25;0.25;;;;;;;;;;5096502;28;20055;-84
2022/10/06 03:07:12;;;;;;;0.35;0.35;;;;;;;;;;5112786;28;20081;-85
2022/10/06 03:09:37;;;;;;;0.70;0.30;;;;;;;;;;5113490;28;20019;-83
2022/10/06 03:12:03;;;;;;;0.10;0.10;;;;;;;;;;5107598;28;20028;-84
2022/10/06 03:14:28;;;;;;;0.10;0.10;;;;;;;;;;5109121;28;20045;-83
2022/10/06 03:16:55;;;;;;;0.40;0.40;;;;;;;;;;5089964;28;20015;-83
2022/10/06 03:19:21;;;;;;;0.20;0.20;;;;;;;;;;5093988;28;20103;-84
2022/10/06 03:21:47;;;;;;;0.20;0.20;;;;;;;;;;5111906;28;20131;-82
2022/10/06 03:24:13;;;;;;;0.20;0.20;;;;;;;;;;5115278;28;20027;-84
2022/10/06 03:26:44;;;;;;;0.25;0.25;;;;;;;;;;5091877;28;20027;-84
2022/10/06 03:29:10;;;;;;;0.45;0.38;;;;;;;;;;5114623;28;20543;-85
2022/10/06 03:31:36;;;;;;;0.13;0.13;;;;;;;;;;5096029;28;20016;-81
2022/10/06 03:34:03;;;;;;;0.15;0.15;;;;;;;;;;5113495;28;20367;-84
2022/10/06 03:36:31;;;;;;;0.10;0.10;;;;;;;;;;5096607;28;20027;-82
2022/10/06 03:38:57;;;;;;;0.88;0.30;;;;;;;;;;5094306;28;20019;-82
2022/10/06 03:41:27;;;;;;;0.30;0.30;;;;;;;;;;5106123;28;20020;-83
2022/10/06 03:43:55;;;;;;;0.28;0.28;;;;;;;;;;5108092;28;20027;-83
2022/10/06 03:46:22;;;;;;;0.20;0.20;;;;;;;;;;5095728;28;20126;-85
2022/10/06 03:48:50;;;;;;;0.32;0.32;;;;;;;;;;5113384;28;20383;-85
2022/10/06 03:51:18;;;;;;;0.47;0.32;;;;;;;;;;5114570;28;20539;-85
2022/10/06 03:53:45;;;;;;;0.60;0.60;;;;;;;;;;5116471;27;20099;-86
2022/10/06 03:56:15;;;;;;;0.22;0.22;;;;;;;;;;5095090;28;20080;-86
2022/10/06 03:58:44;;;;;;;0.10;0.10;;;;;;;;;;5114045;28;20094;-84
2022/10/06 04:01:13;;;;;;;0.20;0.20;;;;;;;;;;5096008;28;20123;-85
2022/10/06 04:03:39;;;;;;;13.45;0.47;;;;;;;;;;5095945;28;20031;-83
2022/10/06 04:06:06;;;;;;;0.57;0.57;;;;;;;;;;5096072;28;20037;-83
2022/10/06 04:08:33;;;;;;;0.20;0.20;;;;;;;;;;5114462;28;20055;-84
2022/10/06 04:11:21;;;;;;;0.10;0.10;;;;;;;;;;5114618;28;20027;-84
2022/10/06 04:13:50;;;;;;;0.30;0.30;;;;;;;;;;5111560;28;20023;-84
2022/10/06 04:16:22;;;;;;;0.20;0.20;;;;;;;;;;5094873;28;20039;-83
2022/10/06 04:18:52;;;;;;;1.75;0.63;;;;;;;;;;5112169;28;20278;-83
2022/10/06 04:21:18;;;;;;;0.20;0.20;;;;;;;;;;5109964;28;20399;-84
2022/10/06 04:23:44;;;;;;;0.30;0.30;;;;;;;;;;5113160;28;20487;-81
2022/10/06 04:26:14;;;;;;;0.30;0.30;;;;;;;;;;5108519;28;20109;-81
2022/10/06 04:28:42;;;;;;;0.10;0.10;;;;;;;;;;5109547;28;20026;-82
2022/10/06 04:31:29;;;;;;;0.20;0.20;;;;;;;;;;5102479;28;20039;-81
2022/10/06 04:33:59;;;;;;;0.10;0.10;;;;;;;;;;5108318;28;20050;-82
2022/10/06 04:36:27;;;;;;;0.20;0.20;;;;;;;;;;5109460;28;20391;-81
2022/10/06 04:38:57;;;;;;;0.28;0.28;;;;;;;;;;5114097;28;20107;-83
2022/10/06 04:41:28;;;;;;;0.25;0.25;;;;;;;;;;5106123;28;20030;-82
2022/10/06 04:43:54;;;;;;;0.30;0.30;;;;;;;;;;5090205;28;20493;-84
2022/10/06 04:46:21;;;;;;;0.22;0.22;;;;;;;;;;5110584;28;20110;-83
2022/10/06 04:48:49;;;;;;;0.30;0.30;;;;;;;;;;5111128;28;20031;-81
2022/10/06 04:51:16;;;;;;;0.13;0.13;;;;;;;;;;5106218;27;20012;-85
2022/10/06 04:53:45;;;;;;;0.20;0.20;;;;;;;;;;5085512;28;20056;-81
2022/10/06 04:56:18;;;;;;;0.43;0.43;;;;;;;;;;5087362;28;20023;-82
2022/10/06 04:58:45;;;;;;;0.17;0.17;;;;;;;;;;5093957;28;20066;-81
2022/10/06 05:01:20;;;;;;;0.98;0.90;;;;;;;;;;5111585;28;20051;-81
2022/10/06 05:03:47;;;;;;;1.23;0.93;;;;;;;;;;5111527;28;20884;-81
2022/10/06 05:06:16;;;;;;;0.20;0.20;;;;;;;;;;5092172;28;20276;-82
2022/10/06 05:08:43;;;;;;;0.65;0.50;;;;;;;;;;5109785;28;20057;-81
2022/10/06 05:11:10;;;;;;;0.20;0.20;;;;;;;;;;5088836;28;20020;-83
2022/10/06 05:13:36;;;;;;;1.65;0.30;;;;;;;;;;5088694;28;20028;-81
2022/10/06 05:16:04;;;;;;;0.70;0.60;;;;;;;;;;5109263;28;20106;-82
2022/10/06 05:18:30;;;;;;;0.93;0.68;;;;;;;;;;5095002;28;20360;-82
2022/10/06 05:21:05;;;;;;;0.38;0.38;;;;;;;;;;5110891;28;20063;-81
2022/10/06 05:23:32;;;;;;;0.85;0.47;;;;;;;;;;5092894;28;20034;-80
2022/10/06 05:25:58;;;;;;;0.47;0.47;;;;;;;;;;5107188;28;20027;-82
2022/10/06 05:28:25;;;;;;;0.30;0.30;;;;;;;;;;5103634;28;20022;-81
2022/10/06 05:30:55;;;;;;;0.40;0.40;;;;;;;;;;5101928;28;20383;-80
2022/10/06 05:33:21;;;;;;;0.25;0.25;;;;;;;;;;5108629;28;20378;-82
2022/10/06 05:35:54;;;;;;;1.48;0.95;;;;;;;;;;5089955;28;20028;-80
2022/10/06 05:38:20;;;;;;;1.45;0.90;;;;;;;;;;5090159;28;20032;-80
2022/10/06 05:40:46;;;;;;;1.50;1.10;;;;;;;;;;5086051;28;20049;-82
2022/10/06 05:43:11;;;;;;;1.98;1.27;;;;;;;;;;5111383;28;20421;-80
2022/10/06 05:45:37;;;;;;;0.75;0.75;;;;;;;;;;5089559;28;20049;-80
2022/10/06 05:48:02;;;;;;;0.98;0.47;;;;;;;;;;5107757;28;20106;-81
2022/10/06 05:50:28;;;;;;;2.25;1.52;;;;;;;;;;5107649;28;20053;-82
2022/10/06 05:52:54;;;;;;;0.22;0.22;;;;;;;;;;5110243;28;20023;-82
2022/10/06 05:55:19;;;;;;;1.15;1.05;;;;;;;;;;5112264;28;20124;-81
2022/10/06 05:57:44;;;;;;;0.40;0.40;;;;;;;;;;5113160;28;20386;-82
2022/10/06 06:00:10;;;;;;;0.75;0.65;;;;;;;;;;5111985;28;20055;-82
2022/10/06 06:02:36;;;;;;;0.75;0.75;;;;;;;;;;5110676;28;20027;-81
2022/10/06 06:05:01;;;;;;;0.25;0.25;;;;;;;;;;5111339;28;20019;-82
2022/10/06 06:07:27;;;;;;;0.28;0.28;;;;;;;;;;5110770;28;20080;-82
2022/10/06 06:09:52;;;;;;;0.30;0.30;;;;;;;;;;5111629;28;20028;-82
2022/10/06 06:12:18;;;;;;;0.35;0.35;;;;;;;;;;5107997;28;20471;-81
2022/10/06 06:17:30;;;;;;;0.63;0.60;;;;;;;;;;5106565;28;20490;-81
2022/10/06 06:19:56;;;;;;;0.57;0.57;;;;;;;;;;5088410;28;20130;-80
2022/10/06 06:22:21;;;;;;;0.32;0.32;;;;;;;;;;5089704;28;20142;-80
2022/10/06 06:24:47;;;;;;;0.47;0.47;;;;;;;;;;5106938;28;20036;-81
2022/10/06 06:27:12;;;;;;;1.17;0.88;;;;;;;;;;5109098;28;20027;-80
2022/10/06 06:29:38;;;;;;;0.70;0.70;;;;;;;;;;5095564;28;20034;-82
2022/10/06 06:32:04;;;;;;;0.40;0.40;;;;;;;;;;5112664;28;20159;-82
2022/10/06 06:34:30;;;;;;;1.13;0.90;;;;;;;;;;5093555;28;20475;-81
2022/10/06 06:36:57;;;;;;;1.25;1.15;;;;;;;;;;5094005;28;20077;-82
2022/10/06 06:39:24;;;;;;;1.05;0.90;;;;;;;;;;5113814;28;20108;-82
2022/10/06 06:41:49;;;;;;;2.25;1.27;;;;;;;;;;5113491;28;20031;-82
2022/10/06 06:44:15;;;;;;;1.30;1.20;;;;;;;;;;5109325;28;20036;-80
2022/10/06 06:46:42;;;;;;;1.30;1.10;;;;;;;;;;5113771;28;20055;-79
2022/10/06 06:49:08;;;;;;;1.42;1.30;;;;;;;;;;5089821;28;20030;-80
2022/10/06 06:51:36;;;;;;;2.20;1.67;;;;;;;;;;5093916;28;20016;-78
2022/10/06 06:54:02;;;;;;;1.95;1.08;;;;;;;;;;5112861;28;20443;-80
2022/10/06 06:56:33;;;;;;;3.65;1.40;;;;;;;;;;5112132;28;20019;-81
2022/10/06 06:59:00;;;;;;;2.15;1.83;;;;;;;;;;5111849;28;20024;-82
2022/10/06 07:01:26;;;;;;;1.15;1.15;;;;;;;;;;5091580;28;20476;-81
2022/10/06 07:03:57;;;;;;;6.38;4.80;;;;;;;;;;5092482;28;20084;-82
2022/10/06 07:06:26;;;;;;;14.68;9.85;;;;;;;;;;5111853;28;20157;-81
2022/10/06 07:08:52;;;;;;;3.45;1.88;;;;;;;;;;5093802;28;20168;-82
2022/10/06 07:11:20;;;;;;;1.75;1.65;;;;;;;;;;5093002;28;20106;-81
2022/10/06 07:13:51;;;;;;;1.92;1.63;;;;;;;;;;5095251;28;20035;-80
2022/10/06 07:27:24;;;;;;;0.98;0.93;;;;;;;;;;5108841;28;20456;-80
2022/10/06 07:29:53;;;;;;;2.92;1.67;;;;;;;;;;5089302;28;20084;-82
2022/10/06 07:32:23;;;;;;;2.78;1.98;;;;;;;;;;5111034;28;20035;-83
2022/10/06 07:34:49;;;;;;;2.03;1.50;;;;;;;;;;5091288;28;20034;-81
2022/10/06 07:37:16;;;;;;;2.58;1.60;;;;;;;;;;5092970;28;20102;-81
2022/10/06 07:39:43;;;;;;;2.42;2.10;;;;;;;;;;5108631;28;20433;-82
2022/10/06 07:42:12;;;;;;;1.85;1.52;;;;;;;;;;5109875;28;20459;-82
2022/10/06 07:44:38;;;;;;;2.35;1.40;;;;;;;;;;5090632;28;20088;-82
2022/10/06 07:47:04;;;;;;;2.78;1.65;;;;;;;;;;5087948;28;20024;-81
2022/10/06 07:49:30;;;;;;;1.38;1.25;;;;;;;;;;5111420;28;21283;-81
2022/10/06 07:51:57;;;;;;;4.00;2.47;;;;;;;;;;5109079;28;20032;-82
2022/10/06 07:54:23;;;;;;;2.17;1.77;;;;;;;;;;5109398;28;20042;-82
2022/10/06 07:56:49;;;;;;;1.88;1.40;;;;;;;;;;5090891;28;20031;-82
2022/10/06 07:59:15;;;;;;;2.42;1.52;;;;;;;;;;5091229;28;20031;-80
2022/10/06 08:01:42;;;;;;;2.17;1.65;;;;;;;;;;5108458;28;20024;-82
2022/10/06 08:04:08;;;;;;;3.33;2.20;;;;;;;;;;5091577;28;20030;-82
2022/10/06 08:06:33;;;;;;;11.77;2.17;;;;;;;;;;5108177;28;20027;-80
2022/10/06 08:08:59;;;;;;;2.05;1.83;;;;;;;;;;5108975;28;20118;-79
2022/10/06 08:11:24;;;;;;;2.33;1.10;;;;;;;;;;5093165;28;20387;-80
2022/10/06 08:13:50;;;;;;;1.45;1.17;;;;;;;;;;5091193;28;20125;-81
2022/10/06 08:16:21;;;;;;;2.47;1.63;;;;;;;;;;5090349;28;20430;-81
2022/10/06 08:18:52;;;;;;;1.55;1.10;;;;;;;;;;5106382;28;20049;-80
2022/10/06 08:21:29;;;;;;;1.83;1.60;;;;;;;;;;5090471;28;20048;-81
2022/10/06 08:23:56;;;;;;;1.67;1.50;;;;;;;;;;5106926;28;20399;-81
2022/10/06 08:26:23;;;;;;;2.95;1.75;;;;;;;;;;5111903;28;20475;-81
2022/10/06 08:28:50;;;;;;;1.80;1.27;;;;;;;;;;5091368;28;20383;-80
2022/10/06 08:31:18;;;;;;;1.40;1.17;;;;;;;;;;5109494;28;20052;-83
2022/10/06 08:33:44;;;;;;;1.83;1.50;;;;;;;;;;5111731;28;20031;-82
2022/10/06 08:36:15;;;;;;;2.05;1.52;;;;;;;;;;5107977;28;20107;-84
2022/10/06 08:38:42;;;;;;;1.98;1.83;;;;;;;;;;5093025;28;20390;-84
2022/10/06 08:41:31;;;;;;;6.57;2.63;;;;;;;;;;5093423;28;20020;-83
2022/10/06 08:44:03;;;;;;;5.40;1.80;;;;;;;;;;5092400;28;20034;-83
2022/10/06 08:46:36;;;;;;;2.45;1.73;;;;;;;;;;5094102;28;20039;-81
2022/10/06 08:49:01;;;;;;;3.92;2.00;;;;;;;;;;5111380;28;20467;-82
2022/10/06 08:51:43;;;;;;;2.33;2.13;;;;;;;;;;5111978;28;20018;-83
2022/10/06 08:54:12;;;;;;;1.20;1.08;;;;;;;;;;5089201;28;20031;-84
2022/10/06 08:56:55;;;;;;;4.70;1.73;;;;;;;;;;5110803;28;20023;-84
2022/10/06 08:59:21;;;;;;;0.95;0.95;;;;;;;;;;5109910;28;20313;-82
2022/10/06 09:01:50;;;;;;;4.40;2.13;;;;;;;;;;5093661;28;20757;-86
2022/10/06 09:04:27;;;;;;;2.00;1.88;;;;;;;;;;5106145;28;20023;-84
2022/10/06 09:07:06;;;;;;;3.88;1.70;;;;;;;;;;5093485;28;20441;-83
2022/10/06 09:10:00;;;;;;;2.13;1.20;;;;;;;;;;5110581;28;20031;-82
2022/10/06 09:12:33;;;;;;;3.00;2.10;;;;;;;;;;5091662;28;20363;-83
2022/10/06 09:15:14;;;;;;;2.83;1.80;;;;;;;;;;5091572;28;20037;-83
2022/10/06 09:17:49;;;;;;;3.13;2.40;;;;;;;;;;5112234;28;20100;-85
2022/10/06 09:20:35;;;;;;;4.32;2.55;;;;;;;;;;5111705;28;20133;-84
2022/10/06 09:23:03;;;;;;;2.00;1.38;;;;;;;;;;5108928;28;20029;-83
2022/10/06 09:25:30;;;;;;;2.45;2.17;;;;;;;;;;5112883;28;20496;-82
2022/10/06 09:27:58;;;;;;;2.10;1.80;;;;;;;;;;5094288;28;20027;-83
2022/10/06 09:30:24;;;;;;;2.33;1.80;;;;;;;;;;5089126;28;20123;-83
2022/10/06 09:33:03;;;;;;;4.20;2.03;;;;;;;;;;5093588;28;20034;-83
2022/10/06 09:35:30;;;;;;;4.47;2.65;;;;;;;;;;5093607;28;20047;-84
2022/10/06 09:38:04;;;;;;;3.45;1.58;;;;;;;;;;5092313;28;20023;-83
2022/10/06 09:40:48;;;;;;;1.58;1.40;;;;;;;;;;5091136;28;20421;-85
2022/10/06 09:43:25;;;;;;;7.72;2.72;;;;;;;;;;5112220;28;20499;-83
2022/10/06 09:45:56;;;;;;;1.75;1.65;;;;;;;;;;5094329;28;20126;-84
2022/10/06 09:48:23;;;;;;;1.65;1.40;;;;;;;;;;5110119;28;20058;-83
2022/10/06 09:51:07;;;;;;;1.13;1.02;;;;;;;;;;5093100;28;20016;-83
2022/10/06 09:53:34;;;;;;;2.17;1.67;;;;;;;;;;5107532;28;20024;-82
2022/10/06 09:56:03;;;;;;;1.80;1.23;;;;;;;;;;5110036;28;20031;-83
2022/10/06 09:58:36;;;;;;;3.35;2.20;;;;;;;;;;5110119;28;20041;-84
2022/10/06 10:01:06;;;;;;;2.15;1.42;;;;;;;;;;5107679;28;20051;-83
2022/10/06 10:03:50;;;;;;;3.38;1.95;;;;;;;;;;5092936;28;20471;-82
2022/10/06 10:06:30;;;;;;;3.08;1.60;;;;;;;;;;5109646;28;20125;-83
2022/10/06 10:09:20;;;;;;;1.98;1.17;;;;;;;;;;5110677;28;20023;-83
2022/10/06 10:12:29;;;;;;;1.63;1.48;;;;;;;;;;5092499;28;20031;-85
2022/10/06 10:15:10;;;;;;;2.08;1.58;;;;;;;;;;5084322;28;20038;-85
2022/10/06 10:17:46;;;;;;;3.58;2.40;;;;;;;;;;5092880;28;20553;-85
2022/10/06 10:20:24;;;;;;;2.45;1.65;;;;;;;;;;5111073;28;21750;-84
2022/10/06 10:22:52;;;;;;;3.08;2.03;;;;;;;;;;5109805;28;20466;-85
2022/10/06 10:25:18;;;;;;;4.43;1.90;;;;;;;;;;5111171;28;20046;-84
2022/10/06 10:27:57;;;;;;;2.47;1.52;;;;;;;;;;5109175;28;20490;-85
2022/10/06 10:30:22;;;;;;;1.10;1.00;;;;;;;;;;5091209;28;20112;-84
2022/10/06 10:32:57;;;;;;;1.98;1.23;;;;;;;;;;5110548;28;20063;-83
2022/10/06 10:35:39;;;;;;;1.73;1.17;;;;;;;;;;5093543;28;20058;-85
2022/10/06 10:38:25;;;;;;;1.48;1.38;;;;;;;;;;5111699;28;20027;-83
2022/10/06 10:41:03;;;;;;;1.60;1.27;;;;;;;;;;5110438;28;20499;-83
2022/10/06 10:43:50;;;;;;;2.95;1.77;;;;;;;;;;5089782;28;20027;-84
2022/10/06 10:46:39;;;;;;;1.20;1.08;;;;;;;;;;5111407;28;20058;-84
2022/10/06 10:49:30;;;;;;;1.90;1.40;;;;;;;;;;5111887;28;20023;-85
2022/10/06 10:52:02;;;;;;;1.27;1.17;;;;;;;;;;5094271;28;20090;-83
2022/10/06 10:54:44;;;;;;;1.35;1.25;;;;;;;;;;5107971;28;20159;-84
2022/10/06 10:57:15;;;;;;;1.42;1.33;;;;;;;;;;5112233;28;20027;-84
2022/10/06 11:00:11;;;;;;;1.90;1.08;;;;;;;;;;5111879;28;20020;-83
2022/10/06 11:02:39;;;;;;;1.63;1.38;;;;;;;;;;5092249;28;20044;-82
2022/10/06 11:05:43;;;;;;;2.92;1.60;;;;;;;;;;5112172;28;20015;-84
2022/10/06 11:08:31;;;;;;;1.88;1.33;;;;;;;;;;5090607;28;20376;-83
2022/10/06 11:11:00;;;;;;;2.95;1.33;;;;;;;;;;5112147;28;20467;-83
2022/10/06 11:13:31;;;;;;;1.40;1.15;;;;;;;;;;5113282;28;20501;-86
2022/10/06 11:16:05;;;;;;;0.63;0.52;;;;;;;;;;5097672;28;20099;-84
2022/10/06 11:18:52;;;;;;;1.58;1.00;;;;;;;;;;5116134;28;20027;-84
2022/10/06 11:21:38;;;;;;;1.05;0.65;;;;;;;;;;5115135;28;20113;-84
2022/10/06 11:24:12;;;;;;;0.95;0.70;;;;;;;;;;5094848;28;20031;-86
2022/10/06 11:26:59;;;;;;;2.08;1.15;;;;;;;;;;5115078;28;20423;-85
2022/10/06 11:29:58;;;;;;;1.17;0.90;;;;;;;;;;5097036;28;20036;-84
2022/10/06 11:32:32;;;;;;;1.67;1.15;;;;;;;;;;5093088;28;20308;-84
2022/10/06 11:34:58;;;;;;;1.40;1.10;;;;;;;;;;5096260;28;20055;-84
2022/10/06 11:37:33;;;;;;;2.47;1.23;;;;;;;;;;5116054;28;20028;-85
2022/10/06 11:40:46;;;;;;;0.80;0.73;;;;;;;;;;5115322;28;20019;-83
2022/10/06 11:43:33;;;;;;;4.13;1.00;;;;;;;;;;5114642;28;20535;-85
2022/10/06 11:46:26;;;;;;;0.73;0.70;;;;;;;;;;5112632;28;20027;-88
2022/10/06 11:48:52;;;;;;;1.92;1.15;;;;;;;;;;5096994;28;20032;-85
2022/10/06 11:51:23;;;;;;;0.77;0.57;;;;;;;;;;5114586;28;20115;-85
2022/10/06 11:53:54;;;;;;;0.30;0.30;;;;;;;;;;5109471;28;20062;-86
2022/10/06 11:56:19;;;;;;;0.30;0.30;;;;;;;;;;5114210;28;20023;-84
2022/10/06 11:58:55;;;;;;;0.70;0.50;;;;;;;;;;5114649;28;20443;-85
2022/10/06 12:01:29;;;;;;;0.30;0.22;;;;;;;;;;5114528;28;20038;-86
2022/10/06 12:04:08;;;;;;;0.10;0.10;;;;;;;;;;5114827;28;20062;-85
2022/10/06 12:06:45;;;;;;;0.33;0.30;;;;;;;;;;5112682;28;20051;-85
2022/10/06 12:09:23;;;;;;;0.85;0.43;;;;;;;;;;5093182;28;20051;-85
2022/10/06 12:11:50;;;;;;;0.75;0.43;;;;;;;;;;5095310;28;20356;-84
2022/10/06 12:14:43;;;;;;;0.25;0.25;;;;;;;;;;5114344;28;20085;-85
2022/10/06 12:17:19;;;;;;;0.38;0.38;;;;;;;;;;5112697;28;20046;-86
2022/10/06 12:20:01;;;;;;;3.17;0.93;;;;;;;;;;5096595;28;20051;-87
2022/10/06 12:22:42;;;;;;;0.30;0.30;;;;;;;;;;5112533;28;20390;-85
2022/10/06 12:25:25;;;;;;;2.20;0.98;;;;;;;;;;5110549;28;20534;-85
2022/10/06 12:28:26;;;;;;;1.10;0.57;;;;;;;;;;5113571;28;20024;-86
2022/10/06 12:31:13;;;;;;;1.00;0.70;;;;;;;;;;5112865;28;20020;-86
2022/10/06 12:33:41;;;;;;;0.40;0.35;;;;;;;;;;5113934;28;20098;-84
2022/10/06 12:36:24;;;;;;;1.17;0.60;;;;;;;;;;5096932;28;20448;-85
2022/10/06 12:39:21;;;;;;;0.40;0.40;;;;;;;;;;5113822;28;20043;-85
2022/10/06 12:42:06;;;;;;;0.50;0.47;;;;;;;;;;5113863;28;20107;-85
2022/10/06 12:44:41;;;;;;;2.83;0.35;;;;;;;;;;5109167;28;20027;-86
2022/10/06 12:47:16;;;;;;;0.30;0.30;;;;;;;;;;5113300;28;20041;-85
2022/10/06 12:49:59;;;;;;;0.55;0.45;;;;;;;;;;5114584;28;20356;-85
2022/10/06 12:52:51;;;;;;;0.63;0.50;;;;;;;;;;5095900;28;20024;-86
2022/10/06 12:55:38;;;;;;;0.45;0.45;;;;;;;;;;5095900;28;20050;-85
2022/10/06 12:58:06;;;;;;;1.58;0.50;;;;;;;;;;5095312;28;20467;-86
2022/10/06 13:00:33;;;;;;;0.90;0.50;;;;;;;;;;5113312;28;20072;-86
2022/10/06 13:03:01;;;;;;;0.38;0.30;;;;;;;;;;5114226;28;20031;-84
2022/10/06 13:05:27;;;;;;;1.75;0.88;;;;;;;;;;5113409;28;20028;-86
2022/10/06 13:07:58;;;;;;;0.40;0.40;;;;;;;;;;5113852;28;20115;-85
2022/10/06 13:10:24;;;;;;;0.52;0.47;;;;;;;;;;5094532;28;20479;-84
2022/10/06 13:12:51;;;;;;;0.40;0.40;;;;;;;;;;5113576;28;20076;-84
2022/10/06 13:15:27;;;;;;;1.10;0.57;;;;;;;;;;5113312;28;20407;-84
2022/10/06 13:17:56;;;;;;;0.40;0.40;;;;;;;;;;5093916;28;20023;-83
2022/10/06 13:20:36;;;;;;;0.90;0.68;;;;;;;;;;5110633;28;20515;-83
2022/10/06 13:23:21;;;;;;;;;;;;;;;;;;5112223;28;20081;-83
2022/10/06 13:25:54;;;;;;;0.63;0.40;;;;;;;;;;5106849;28;19964;-84
2022/10/06 13:28:24;;;;;;;0.65;0.47;;;;;;;;;;5110742;28;20035;-84
2022/10/06 13:30:53;;;;;;;0.52;0.28;;;;;;;;;;5110235;28;20019;-85
2022/10/06 13:33:19;;;;;;;0.43;0.43;;;;;;;;;;5093594;28;20035;-83
2022/10/06 13:35:49;;;;;;;0.20;0.20;;;;;;;;;;5092991;28;20059;-86
2022/10/06 13:38:15;;;;;;;0.55;0.50;;;;;;;;;;5087804;28;20119;-87
2022/10/06 13:40:41;;;;;;;0.57;0.40;;;;;;;;;;5111217;28;20043;-84
2022/10/06 13:43:15;;;;;;;3.63;0.50;;;;;;;;;;5110010;28;20719;-84
2022/10/06 13:45:43;;;;;;;0.55;0.35;;;;;;;;;;5090955;28;20446;-83
2022/10/06 13:48:17;;;;;;;0.55;0.50;;;;;;;;;;5111138;28;20035;-83
2022/10/06 13:50:45;;;;;;;0.35;0.30;;;;;;;;;;5093717;28;20023;-84
2022/10/06 13:53:42;;;;;;;1.67;0.50;;;;;;;;;;5088980;28;20047;-83
2022/10/06 13:56:25;;;;;;;0.50;0.30;;;;;;;;;;5074150;28;20479;-85
2022/10/06 13:58:50;;;;;;;0.65;0.32;;;;;;;;;;5111929;28;20059;-84
2022/10/06 14:01:27;;;;;;;0.40;0.40;;;;;;;;;;5111832;28;20497;-84
2022/10/06 14:04:11;;;;;;;1.02;0.50;;;;;;;;;;5094568;28;20482;-83
2022/10/06 14:06:37;;;;;;;0.52;0.50;;;;;;;;;;5093512;28;20123;-84
2022/10/06 14:09:10;;;;;;;0.65;0.30;;;;;;;;;;5110457;28;20098;-83
2022/10/06 14:11:35;;;;;;;0.63;0.40;;;;;;;;;;5111049;28;20016;-85
2022/10/06 14:14:03;;;;;;;0.88;0.50;;;;;;;;;;5112595;28;20016;-84
2022/10/06 14:16:29;;;;;;;0.60;0.25;;;;;;;;;;5091328;28;20039;-84
2022/10/06 14:19:02;;;;;;;0.50;0.50;;;;;;;;;;5112382;28;20024;-86
2022/10/06 14:21:38;;;;;;;0.63;0.30;;;;;;;;;;5109153;28;20478;-85
2022/10/06 14:24:15;;;;;;;0.15;0.15;;;;;;;;;;5093635;28;20028;-85
2022/10/06 14:26:45;;;;;;;0.35;0.25;;;;;;;;;;5093410;28;20047;-85
2022/10/06 14:29:17;;;;;;;0.55;0.30;;;;;;;;;;5092086;28;20020;-84
2022/10/06 14:31:43;;;;;;;0.05;0.05;;;;;;;;;;5111232;28;20088;-83
2022/10/06 14:34:15;;;;;;;0.55;0.30;;;;;;;;;;5093787;28;20015;-86
2022/10/06 14:36:43;;;;;;;0.38;0.17;;;;;;;;;;5109294;28;20133;-84
2022/10/06 14:39:11;;;;;;;1.40;0.45;;;;;;;;;;5093648;28;20054;-83
2022/10/06 14:41:37;;;;;;;0.10;0.10;;;;;;;;;;5091528;28;20027;-82
2022/10/06 14:44:05;;;;;;;0.68;0.38;;;;;;;;;;5109417;28;20024;-84
2022/10/06 14:46:32;;;;;;;0.38;0.38;;;;;;;;;;5112083;28;20431;-84
2022/10/06 14:48:58;;;;;;;0.20;0.10;;;;;;;;;;5095395;28;20059;-83
2022/10/06 14:51:25;;;;;;;0.05;0.05;;;;;;;;;;5112331;28;20502;-81
2022/10/06 14:53:55;;;;;;;0.50;0.20;;;;;;;;;;5112273;28;20024;-84
2022/10/06 14:56:22;;;;;;;0.20;0.20;;;;;;;;;;5093645;28;20142;-82
2022/10/06 14:58:49;;;;;;;0.13;0.10;;;;;;;;;;5090669;28;20459;-82
2022/10/06 15:01:16;;;;;;;0.15;0.15;;;;;;;;;;5115457;28;20046;-83
2022/10/06 15:03:42;;;;;;;0.50;0.10;;;;;;;;;;5108959;28;20547;-83
2022/10/06 15:08:57;;;;;;;1.05;0.20;;;;;;;;;;5110630;28;20112;-83
2022/10/06 15:11:26;;;;;;;0.30;0.30;;;;;;;;;;5093366;28;20024;-82
2022/10/06 15:13:53;;;;;;;1.08;0.22;;;;;;;;;;5108425;28;20119;-85
2022/10/06 15:16:22;;;;;;;0.40;0.20;;;;;;;;;;5112836;28;20467;-83
2022/10/06 15:18:49;;;;;;;0.20;0.20;;;;;;;;;;5114275;28;20108;-86
2022/10/06 15:21:15;;;;;;;1.35;0.38;;;;;;;;;;5114414;28;20511;-84